createdAt,value
2018-04-11T00:00:10.858Z,0
2018-04-11T00:00:36.991Z,0
2018-04-11T00:01:03.131Z,0
2018-04-11T00:01:29.273Z,0
2018-04-11T00:01:55.416Z,0
2018-04-11T00:02:21.558Z,0
2018-04-11T00:02:47.695Z,0
2018-04-11T00:03:13.831Z,0
2018-04-11T00:03:39.990Z,0
2018-04-11T00:04:06.157Z,0
2018-04-11T00:04:32.296Z,0
2018-04-11T00:04:58.457Z,0
2018-04-11T00:05:24.598Z,0
2018-04-11T00:05:50.730Z,0
2018-04-11T00:06:16.881Z,0
2018-04-11T00:06:43.017Z,0
2018-04-11T00:07:09.183Z,0
2018-04-11T00:07:35.342Z,0
2018-04-11T00:08:01.513Z,0
2018-04-11T00:08:27.645Z,0
2018-04-11T00:08:53.789Z,0
2018-04-11T00:09:19.925Z,0
2018-04-11T00:09:46.069Z,0
2018-04-11T00:10:12.213Z,0
2018-04-11T00:10:38.349Z,0
2018-04-11T00:11:04.490Z,0
2018-04-11T00:11:30.657Z,0
2018-04-11T00:11:56.822Z,0
2018-04-11T00:12:23.015Z,0
2018-04-11T00:12:49.146Z,0
2018-04-11T00:13:15.290Z,0
2018-04-11T00:13:41.426Z,0
2018-04-11T00:14:07.570Z,0
2018-04-11T00:14:33.707Z,0
2018-04-11T00:14:59.852Z,0
2018-04-11T00:15:26.015Z,0
2018-04-11T00:15:52.157Z,0
2018-04-11T00:16:18.291Z,0
2018-04-11T00:16:44.440Z,0
2018-04-11T00:17:10.590Z,0
2018-04-11T00:17:36.732Z,0
2018-04-11T00:18:02.874Z,0
2018-04-11T00:18:29.017Z,0
2018-04-11T00:18:55.156Z,0
2018-04-11T00:19:21.302Z,0
2018-04-11T00:19:47.438Z,0
2018-04-11T00:20:13.577Z,0
2018-04-11T00:20:39.716Z,0
2018-04-11T00:21:05.858Z,0
2018-04-11T00:21:32.004Z,0
2018-04-11T00:21:58.186Z,0
2018-04-11T00:22:24.357Z,0
2018-04-11T00:22:50.492Z,0
2018-04-11T00:23:16.639Z,0
2018-04-11T00:23:42.784Z,0
2018-04-11T00:24:08.950Z,0
2018-04-11T00:24:35.086Z,0
2018-04-11T00:25:01.230Z,0
2018-04-11T00:25:27.416Z,0
2018-04-11T00:25:53.560Z,0
2018-04-11T00:26:19.701Z,0
2018-04-11T00:26:45.843Z,0
2018-04-11T00:27:11.989Z,0
2018-04-11T00:27:38.126Z,0
2018-04-11T00:28:04.261Z,0
2018-04-11T00:28:30.404Z,0
2018-04-11T00:28:56.549Z,0
2018-04-11T00:29:22.687Z,0
2018-04-11T00:29:48.824Z,0
2018-04-11T00:30:14.962Z,0
2018-04-11T00:30:41.103Z,0
2018-04-11T00:31:07.242Z,0
2018-04-11T00:31:33.405Z,0
2018-04-11T00:31:59.540Z,0
2018-04-11T00:32:25.680Z,0
2018-04-11T00:32:51.817Z,0
2018-04-11T00:33:17.963Z,0
2018-04-11T00:33:44.102Z,0
2018-04-11T00:34:10.234Z,0
2018-04-11T00:34:36.378Z,0
2018-04-11T00:35:02.549Z,0
2018-04-11T00:35:28.688Z,0
2018-04-11T00:35:54.858Z,0
2018-04-11T00:36:20.996Z,0
2018-04-11T00:36:47.130Z,0
2018-04-11T00:37:13.271Z,0
2018-04-11T00:37:39.418Z,0
2018-04-11T00:38:05.555Z,0
2018-04-11T00:38:31.699Z,0
2018-04-11T00:38:57.832Z,0
2018-04-11T00:39:23.978Z,0
2018-04-11T00:39:50.120Z,0
2018-04-11T00:40:16.268Z,0
2018-04-11T00:40:42.427Z,0
2018-04-11T00:41:08.602Z,0
2018-04-11T00:41:34.734Z,0
2018-04-11T00:42:00.880Z,0
2018-04-11T00:42:27.045Z,0
2018-04-11T00:42:53.185Z,0
2018-04-11T00:43:19.327Z,0
2018-04-11T00:43:45.470Z,0
2018-04-11T00:44:11.613Z,0
2018-04-11T00:44:37.769Z,0
2018-04-11T00:45:03.911Z,0
2018-04-11T00:45:30.053Z,0
2018-04-11T00:45:56.189Z,0
2018-04-11T00:46:22.399Z,0
2018-04-11T00:46:48.498Z,0
2018-04-11T00:47:14.633Z,0
2018-04-11T00:47:40.778Z,0
2018-04-11T00:48:06.938Z,0
2018-04-11T00:48:33.077Z,0
2018-04-11T00:48:59.219Z,0
2018-04-11T00:49:25.381Z,0
2018-04-11T00:49:51.499Z,0
2018-04-11T00:50:17.658Z,0
2018-04-11T00:50:43.798Z,0
2018-04-11T00:51:09.936Z,0
2018-04-11T00:51:36.107Z,0
2018-04-11T00:52:02.288Z,0
2018-04-11T00:52:28.475Z,0
2018-04-11T00:52:54.633Z,0
2018-04-11T00:53:20.801Z,0
2018-04-11T00:53:46.960Z,0
2018-04-11T00:54:13.094Z,0
2018-04-11T00:54:39.261Z,0
2018-04-11T00:55:05.407Z,0
2018-04-11T00:55:31.582Z,0
2018-04-11T00:55:57.745Z,0
2018-04-11T00:56:23.885Z,0
2018-04-11T00:56:50.026Z,0
2018-04-11T00:57:16.168Z,0
2018-04-11T00:57:42.312Z,0
2018-04-11T00:58:08.451Z,0
2018-04-11T00:58:34.588Z,0
2018-04-11T00:59:00.726Z,0
2018-04-11T00:59:26.873Z,0
2018-04-11T00:59:53.003Z,0
2018-04-11T01:00:19.170Z,0
2018-04-11T01:00:45.302Z,0
2018-04-11T01:01:11.472Z,0
2018-04-11T01:01:37.638Z,0
2018-04-11T01:02:03.775Z,0
2018-04-11T01:02:29.919Z,0
2018-04-11T01:02:56.079Z,0
2018-04-11T01:03:22.224Z,0
2018-04-11T01:03:48.362Z,0
2018-04-11T01:04:14.526Z,0
2018-04-11T01:04:40.664Z,0
2018-04-11T01:05:06.802Z,0
2018-04-11T01:05:32.939Z,0
2018-04-11T01:05:59.081Z,0
2018-04-11T01:06:25.225Z,0
2018-04-11T01:06:51.368Z,0
2018-04-11T01:07:17.505Z,0
2018-04-11T01:07:43.642Z,0
2018-04-11T01:08:09.778Z,0
2018-04-11T01:08:35.950Z,0
2018-04-11T01:09:02.094Z,0
2018-04-11T01:09:28.232Z,0
2018-04-11T01:09:54.377Z,0
2018-04-11T01:10:20.522Z,0
2018-04-11T01:10:46.665Z,0
2018-04-11T01:11:12.808Z,0
2018-04-11T01:11:38.947Z,0
2018-04-11T01:12:05.080Z,0
2018-04-11T01:12:31.240Z,0
2018-04-11T01:12:57.390Z,0
2018-04-11T01:13:23.526Z,0
2018-04-11T01:13:49.665Z,0
2018-04-11T01:14:15.830Z,0
2018-04-11T01:14:41.981Z,0
2018-04-11T01:15:08.142Z,0
2018-04-11T01:15:34.283Z,0
2018-04-11T01:16:00.444Z,0
2018-04-11T01:16:26.585Z,0
2018-04-11T01:16:52.728Z,0
2018-04-11T01:17:18.862Z,0
2018-04-11T01:17:45.002Z,0
2018-04-11T01:18:11.143Z,0
2018-04-11T01:18:37.304Z,0
2018-04-11T01:19:03.446Z,0
2018-04-11T01:19:29.588Z,0
2018-04-11T01:19:55.729Z,0
2018-04-11T01:20:21.871Z,0
2018-04-11T01:20:48.009Z,0
2018-04-11T01:21:14.150Z,0
2018-04-11T01:21:40.287Z,0
2018-04-11T01:22:06.430Z,0
2018-04-11T01:22:32.590Z,0
2018-04-11T01:22:58.732Z,0
2018-04-11T01:23:24.871Z,0
2018-04-11T01:23:51.030Z,0
2018-04-11T01:24:17.211Z,0
2018-04-11T01:24:43.355Z,0
2018-04-11T01:25:09.492Z,0
2018-04-11T01:25:35.628Z,0
2018-04-11T01:26:01.773Z,0
2018-04-11T01:26:27.911Z,0
2018-04-11T01:26:54.058Z,0
2018-04-11T01:27:20.190Z,0
2018-04-11T01:27:46.336Z,0
2018-04-11T01:28:12.472Z,0
2018-04-11T01:28:38.612Z,0
2018-04-11T01:29:04.748Z,0
2018-04-11T01:29:30.917Z,0
2018-04-11T01:29:57.050Z,0
2018-04-11T01:30:23.191Z,0
2018-04-11T01:30:49.358Z,0
2018-04-11T01:31:15.521Z,0
2018-04-11T01:31:41.656Z,0
2018-04-11T01:32:07.797Z,0
2018-04-11T01:32:33.959Z,0
2018-04-11T01:33:00.098Z,0
2018-04-11T01:33:26.240Z,0
2018-04-11T01:33:52.381Z,0
2018-04-11T01:34:18.525Z,0
2018-04-11T01:34:44.658Z,0
2018-04-11T01:35:10.799Z,0
2018-04-11T01:35:36.938Z,0
2018-04-11T01:36:03.078Z,0
2018-04-11T01:36:29.252Z,0
2018-04-11T01:36:55.384Z,0
2018-04-11T01:37:21.529Z,0
2018-04-11T01:37:47.675Z,0
2018-04-11T01:38:13.810Z,0
2018-04-11T01:38:39.949Z,0
2018-04-11T01:39:06.088Z,0
2018-04-11T01:39:32.229Z,0
2018-04-11T01:39:58.399Z,0
2018-04-11T01:40:24.542Z,0
2018-04-11T01:40:50.686Z,0
2018-04-11T01:41:16.820Z,0
2018-04-11T01:41:43.009Z,0
2018-04-11T01:42:09.148Z,0
2018-04-11T01:42:35.288Z,0
2018-04-11T01:43:01.427Z,0
2018-04-11T01:43:27.601Z,0
2018-04-11T01:43:53.741Z,0
2018-04-11T01:44:19.873Z,0
2018-04-11T01:44:46.014Z,0
2018-04-11T01:45:12.181Z,0
2018-04-11T01:45:38.320Z,0
2018-04-11T01:46:04.456Z,0
2018-04-11T01:46:30.594Z,0
2018-04-11T01:46:56.738Z,0
2018-04-11T01:47:22.882Z,0
2018-04-11T01:47:49.019Z,0
2018-04-11T01:48:15.151Z,0
2018-04-11T01:48:41.324Z,0
2018-04-11T01:49:07.462Z,0
2018-04-11T01:49:33.608Z,0
2018-04-11T01:49:59.744Z,0
2018-04-11T01:50:25.879Z,0
2018-04-11T01:50:52.018Z,0
2018-04-11T01:51:18.183Z,0
2018-04-11T01:51:44.330Z,0
2018-04-11T01:52:10.468Z,0
2018-04-11T01:52:36.659Z,0
2018-04-11T01:53:02.790Z,0
2018-04-11T01:53:28.954Z,0
2018-04-11T01:53:55.121Z,0
2018-04-11T01:54:21.281Z,0
2018-04-11T01:54:47.438Z,0
2018-04-11T01:55:13.576Z,0
2018-04-11T01:55:39.714Z,0
2018-04-11T01:56:05.862Z,0
2018-04-11T01:56:31.994Z,0
2018-04-11T01:56:58.161Z,0
2018-04-11T01:57:24.296Z,0
2018-04-11T01:57:50.438Z,0
2018-04-11T01:58:16.579Z,0
2018-04-11T01:58:42.721Z,0
2018-04-11T01:59:08.859Z,0
2018-04-11T01:59:34.997Z,0
2018-04-11T02:00:01.141Z,0
2018-04-11T02:00:27.302Z,0
2018-04-11T02:00:53.467Z,0
2018-04-11T02:01:19.610Z,0
2018-04-11T02:01:45.781Z,0
2018-04-11T02:02:11.921Z,0
2018-04-11T02:02:38.059Z,0
2018-04-11T02:03:04.200Z,0
2018-04-11T02:03:30.343Z,0
2018-04-11T02:03:56.485Z,0
2018-04-11T02:04:22.623Z,0
2018-04-11T02:04:48.758Z,0
2018-04-11T02:05:14.906Z,0
2018-04-11T02:05:41.050Z,0
2018-04-11T02:06:07.187Z,0
2018-04-11T02:06:33.329Z,0
2018-04-11T02:06:59.463Z,0
2018-04-11T02:07:25.613Z,0
2018-04-11T02:07:51.753Z,0
2018-04-11T02:08:17.921Z,0
2018-04-11T02:08:44.057Z,0
2018-04-11T02:09:10.197Z,0
2018-04-11T02:09:36.368Z,0
2018-04-11T02:10:02.519Z,0
2018-04-11T02:10:28.657Z,0
2018-04-11T02:10:54.788Z,0
2018-04-11T02:11:20.979Z,0
2018-04-11T02:11:47.125Z,0
2018-04-11T02:12:13.261Z,0
2018-04-11T02:12:39.406Z,0
2018-04-11T02:13:05.549Z,0
2018-04-11T02:13:31.692Z,0
2018-04-11T02:13:57.850Z,0
2018-04-11T02:14:23.990Z,0
2018-04-11T02:14:50.134Z,0
2018-04-11T02:15:16.272Z,0
2018-04-11T02:15:42.411Z,0
2018-04-11T02:16:08.551Z,0
2018-04-11T02:16:34.697Z,0
2018-04-11T02:17:00.863Z,0
2018-04-11T02:17:26.997Z,0
2018-04-11T02:17:53.143Z,0
2018-04-11T02:18:19.273Z,0
2018-04-11T02:18:45.404Z,0
2018-04-11T02:19:11.547Z,0
2018-04-11T02:19:37.736Z,0
2018-04-11T02:20:03.890Z,0
2018-04-11T02:20:30.033Z,0
2018-04-11T02:20:56.167Z,0
2018-04-11T02:21:22.332Z,0
2018-04-11T02:21:48.474Z,0
2018-04-11T02:22:14.611Z,0
2018-04-11T02:22:40.754Z,0
2018-04-11T02:23:06.938Z,0
2018-04-11T02:23:33.079Z,0
2018-04-11T02:23:59.217Z,0
2018-04-11T02:24:25.377Z,0
2018-04-11T02:24:51.543Z,0
2018-04-11T02:25:17.724Z,0
2018-04-11T02:25:43.859Z,0
2018-04-11T02:26:10.000Z,0
2018-04-11T02:26:36.140Z,0
2018-04-11T02:27:02.280Z,0
2018-04-11T02:27:28.421Z,0
2018-04-11T02:27:54.555Z,0
2018-04-11T02:28:20.692Z,0
2018-04-11T02:28:46.840Z,0
2018-04-11T02:29:12.975Z,0
2018-04-11T02:29:39.138Z,0
2018-04-11T02:30:05.299Z,0
2018-04-11T02:30:31.465Z,0
2018-04-11T02:30:57.604Z,0
2018-04-11T02:31:23.739Z,0
2018-04-11T02:31:49.879Z,0
2018-04-11T02:32:16.049Z,0
2018-04-11T02:32:42.197Z,0
2018-04-11T02:33:08.329Z,0
2018-04-11T02:33:34.461Z,0
2018-04-11T02:34:00.648Z,0
2018-04-11T02:34:26.811Z,0
2018-04-11T02:34:52.952Z,0
2018-04-11T02:35:19.095Z,0
2018-04-11T02:35:45.255Z,0
2018-04-11T02:36:11.421Z,0
2018-04-11T02:36:37.561Z,0
2018-04-11T02:37:03.706Z,0
2018-04-11T02:37:29.916Z,0
2018-04-11T02:37:56.083Z,0
2018-04-11T02:38:22.300Z,0
2018-04-11T02:38:48.438Z,0
2018-04-11T02:39:14.585Z,0
2018-04-11T02:39:40.794Z,0
2018-04-11T02:40:06.934Z,0
2018-04-11T02:40:33.069Z,0
2018-04-11T02:40:59.215Z,0
2018-04-11T02:41:25.379Z,0
2018-04-11T02:41:51.540Z,0
2018-04-11T02:42:17.681Z,0
2018-04-11T02:42:43.821Z,0
2018-04-11T02:43:09.991Z,0
2018-04-11T02:43:36.129Z,0
2018-04-11T02:44:02.291Z,0
2018-04-11T02:44:28.433Z,0
2018-04-11T02:44:54.610Z,0
2018-04-11T02:45:20.769Z,0
2018-04-11T02:45:46.955Z,0
2018-04-11T02:46:13.173Z,0
2018-04-11T02:46:39.320Z,0
2018-04-11T02:47:05.506Z,0
2018-04-11T02:47:31.648Z,0
2018-04-11T02:47:57.847Z,0
2018-04-11T02:48:24.007Z,0
2018-04-11T02:48:50.147Z,0
2018-04-11T02:49:16.331Z,0
2018-04-11T02:49:42.472Z,0
2018-04-11T02:50:08.609Z,0
2018-04-11T02:50:34.770Z,0
2018-04-11T02:51:00.912Z,0
2018-04-11T02:51:27.075Z,0
2018-04-11T02:51:53.221Z,0
2018-04-11T02:52:19.375Z,0
2018-04-11T02:52:45.563Z,0
2018-04-11T02:53:11.705Z,0
2018-04-11T02:53:37.880Z,0
2018-04-11T02:54:04.022Z,0
2018-04-11T02:54:30.187Z,0
2018-04-11T02:54:56.346Z,0
2018-04-11T02:55:22.492Z,0
2018-04-11T02:55:48.629Z,0
2018-04-11T02:56:14.764Z,0
2018-04-11T02:56:40.908Z,0
2018-04-11T02:57:07.092Z,0
2018-04-11T02:57:33.258Z,0
2018-04-11T02:57:59.401Z,0
2018-04-11T02:58:25.616Z,0
2018-04-11T02:58:51.799Z,0
2018-04-11T02:59:17.964Z,0
2018-04-11T02:59:44.109Z,0
2018-04-11T03:00:10.294Z,0
2018-04-11T03:00:36.426Z,0
2018-04-11T03:01:02.615Z,0
2018-04-11T03:01:28.780Z,0
2018-04-11T03:01:54.915Z,0
2018-04-11T03:02:21.091Z,0
2018-04-11T03:02:47.256Z,0
2018-04-11T03:03:13.402Z,0
2018-04-11T03:03:39.571Z,0
2018-04-11T03:04:05.706Z,0
2018-04-11T03:04:31.872Z,0
2018-04-11T03:04:58.006Z,0
2018-04-11T03:05:24.147Z,0
2018-04-11T03:05:50.282Z,0
2018-04-11T03:06:16.442Z,0
2018-04-11T03:06:42.633Z,0
2018-04-11T03:07:08.772Z,0
2018-04-11T03:07:34.949Z,0
2018-04-11T03:08:01.115Z,0
2018-04-11T03:08:27.247Z,0
2018-04-11T03:08:53.394Z,0
2018-04-11T03:09:19.622Z,0
2018-04-11T03:09:45.726Z,0
2018-04-11T03:10:11.888Z,0
2018-04-11T03:10:38.029Z,0
2018-04-11T03:11:04.189Z,0
2018-04-11T03:11:30.332Z,0
2018-04-11T03:11:56.475Z,0
2018-04-11T03:12:22.614Z,0
2018-04-11T03:12:48.753Z,0
2018-04-11T03:13:14.896Z,0
2018-04-11T03:13:41.032Z,0
2018-04-11T03:14:07.174Z,0
2018-04-11T03:14:33.317Z,0
2018-04-11T03:14:59.450Z,0
2018-04-11T03:15:25.612Z,0
2018-04-11T03:15:51.758Z,0
2018-04-11T03:16:17.943Z,0
2018-04-11T03:16:44.086Z,0
2018-04-11T03:17:10.242Z,0
2018-04-11T03:17:36.386Z,0
2018-04-11T03:18:02.556Z,0
2018-04-11T03:18:28.689Z,0
2018-04-11T03:18:54.856Z,0
2018-04-11T03:19:20.994Z,0
2018-04-11T03:19:47.162Z,0
2018-04-11T03:20:13.318Z,0
2018-04-11T03:20:39.455Z,0
2018-04-11T03:21:05.616Z,0
2018-04-11T03:21:31.779Z,0
2018-04-11T03:21:57.921Z,0
2018-04-11T03:22:24.085Z,0
2018-04-11T03:22:50.228Z,0
2018-04-11T03:23:16.367Z,0
2018-04-11T03:23:42.536Z,0
2018-04-11T03:24:08.668Z,0
2018-04-11T03:24:34.833Z,0
2018-04-11T03:25:00.993Z,0
2018-04-11T03:25:27.139Z,0
2018-04-11T03:25:53.295Z,0
2018-04-11T03:26:19.439Z,0
2018-04-11T03:26:45.603Z,0
2018-04-11T03:27:11.735Z,0
2018-04-11T03:27:37.871Z,0
2018-04-11T03:28:04.012Z,0
2018-04-11T03:28:30.178Z,0
2018-04-11T03:28:56.315Z,0
2018-04-11T03:29:22.450Z,0
2018-04-11T03:29:48.595Z,0
2018-04-11T03:30:14.756Z,0
2018-04-11T03:30:40.918Z,0
2018-04-11T03:31:07.108Z,0
2018-04-11T03:31:33.297Z,0
2018-04-11T03:31:59.470Z,0
2018-04-11T03:32:25.659Z,0
2018-04-11T03:32:51.794Z,0
2018-04-11T03:33:17.933Z,0
2018-04-11T03:33:44.094Z,0
2018-04-11T03:34:10.232Z,0
2018-04-11T03:34:36.371Z,0
2018-04-11T03:35:02.508Z,0
2018-04-11T03:35:28.647Z,0
2018-04-11T03:35:54.779Z,0
2018-04-11T03:36:20.930Z,0
2018-04-11T03:36:47.089Z,0
2018-04-11T03:37:13.272Z,0
2018-04-11T03:37:39.411Z,0
2018-04-11T03:38:05.546Z,0
2018-04-11T03:38:31.687Z,0
2018-04-11T03:38:57.826Z,0
2018-04-11T03:39:23.967Z,0
2018-04-11T03:39:50.101Z,0
2018-04-11T03:40:16.242Z,0
2018-04-11T03:40:42.376Z,0
2018-04-11T03:41:08.527Z,0
2018-04-11T03:41:34.683Z,0
2018-04-11T03:42:00.826Z,0
2018-04-11T03:42:26.969Z,0
2018-04-11T03:42:53.133Z,0
2018-04-11T03:43:19.270Z,0
2018-04-11T03:43:45.432Z,0
2018-04-11T03:44:11.590Z,0
2018-04-11T03:44:37.775Z,0
2018-04-11T03:45:03.911Z,0
2018-04-11T03:45:30.051Z,0
2018-04-11T03:45:56.196Z,0
2018-04-11T03:46:22.354Z,0
2018-04-11T03:46:48.498Z,0
2018-04-11T03:47:14.636Z,0
2018-04-11T03:47:40.771Z,0
2018-04-11T03:48:06.957Z,0
2018-04-11T03:48:33.117Z,0
2018-04-11T03:48:59.260Z,0
2018-04-11T03:49:25.402Z,0
2018-04-11T03:49:51.540Z,0
2018-04-11T03:50:17.701Z,0
2018-04-11T03:50:43.843Z,0
2018-04-11T03:51:10.001Z,0
2018-04-11T03:51:36.152Z,0
2018-04-11T03:52:02.309Z,0
2018-04-11T03:52:28.473Z,0
2018-04-11T03:52:54.640Z,0
2018-04-11T03:53:20.784Z,0
2018-04-11T03:53:46.948Z,0
2018-04-11T03:54:13.112Z,0
2018-04-11T03:54:39.247Z,0
2018-04-11T03:55:05.392Z,0
2018-04-11T03:55:31.538Z,0
2018-04-11T03:55:57.695Z,0
2018-04-11T03:56:23.831Z,0
2018-04-11T03:56:49.976Z,0
2018-04-11T03:57:16.138Z,0
2018-04-11T03:57:42.277Z,0
2018-04-11T03:58:08.441Z,0
2018-04-11T03:58:34.644Z,0
2018-04-11T03:59:00.747Z,0
2018-04-11T03:59:26.902Z,0
2018-04-11T03:59:53.068Z,0
2018-04-11T04:00:19.207Z,0
2018-04-11T04:00:45.420Z,0
2018-04-11T04:01:11.561Z,0
2018-04-11T04:01:37.784Z,0
2018-04-11T04:02:03.895Z,0
2018-04-11T04:02:30.037Z,0
2018-04-11T04:02:56.221Z,0
2018-04-11T04:03:22.391Z,0
2018-04-11T04:03:48.552Z,0
2018-04-11T04:04:14.689Z,0
2018-04-11T04:04:40.840Z,0
2018-04-11T04:05:07.035Z,0
2018-04-11T04:05:33.168Z,0
2018-04-11T04:05:59.314Z,0
2018-04-11T04:06:25.458Z,0
2018-04-11T04:06:51.596Z,0
2018-04-11T04:07:17.756Z,0
2018-04-11T04:07:43.941Z,4
2018-04-11T04:08:10.064Z,4
2018-04-11T04:08:36.200Z,4
2018-04-11T04:09:02.392Z,4
2018-04-11T04:09:28.565Z,4
2018-04-11T04:09:54.703Z,4
2018-04-11T04:10:20.863Z,0
2018-04-11T04:10:47.035Z,0
2018-04-11T04:11:13.178Z,4
2018-04-11T04:11:39.313Z,4
2018-04-11T04:12:05.472Z,4
2018-04-11T04:12:31.642Z,4
2018-04-11T04:12:57.786Z,4
2018-04-11T04:13:23.926Z,4
2018-04-11T04:13:50.069Z,4
2018-04-11T04:14:16.229Z,4
2018-04-11T04:14:42.368Z,8
2018-04-11T04:15:08.509Z,8
2018-04-11T04:15:34.651Z,4
2018-04-11T04:16:00.787Z,8
2018-04-11T04:16:26.926Z,8
2018-04-11T04:16:53.065Z,8
2018-04-11T04:17:19.230Z,8
2018-04-11T04:17:45.368Z,8
2018-04-11T04:18:11.528Z,12
2018-04-11T04:18:37.658Z,8
2018-04-11T04:19:03.799Z,12
2018-04-11T04:19:29.932Z,12
2018-04-11T04:19:56.071Z,16
2018-04-11T04:20:22.253Z,16
2018-04-11T04:20:48.377Z,16
2018-04-11T04:21:14.510Z,20
2018-04-11T04:21:40.678Z,20
2018-04-11T04:22:06.818Z,20
2018-04-11T04:22:32.951Z,20
2018-04-11T04:22:59.094Z,24
2018-04-11T04:23:25.234Z,28
2018-04-11T04:23:51.375Z,28
2018-04-11T04:24:17.515Z,28
2018-04-11T04:24:43.711Z,32
2018-04-11T04:25:09.846Z,36
2018-04-11T04:25:35.988Z,36
2018-04-11T04:26:02.133Z,40
2018-04-11T04:26:28.266Z,44
2018-04-11T04:26:54.411Z,44
2018-04-11T04:27:20.546Z,48
2018-04-11T04:27:46.684Z,52
2018-04-11T04:28:12.822Z,56
2018-04-11T04:28:38.953Z,56
2018-04-11T04:29:05.099Z,60
2018-04-11T04:29:31.263Z,68
2018-04-11T04:29:57.405Z,72
2018-04-11T04:30:23.622Z,76
2018-04-11T04:30:49.709Z,80
2018-04-11T04:31:15.850Z,80
2018-04-11T04:31:41.988Z,88
2018-04-11T04:32:08.130Z,92
2018-04-11T04:32:34.297Z,96
2018-04-11T04:33:00.429Z,104
2018-04-11T04:33:26.578Z,108
2018-04-11T04:33:52.724Z,112
2018-04-11T04:34:18.865Z,120
2018-04-11T04:34:45.002Z,128
2018-04-11T04:35:11.171Z,132
2018-04-11T04:35:37.310Z,140
2018-04-11T04:36:03.460Z,148
2018-04-11T04:36:29.616Z,156
2018-04-11T04:36:55.755Z,164
2018-04-11T04:37:21.897Z,172
2018-04-11T04:37:48.060Z,180
2018-04-11T04:38:14.201Z,188
2018-04-11T04:38:40.336Z,200
2018-04-11T04:39:06.507Z,204
2018-04-11T04:39:32.650Z,212
2018-04-11T04:39:58.793Z,224
2018-04-11T04:40:24.951Z,232
2018-04-11T04:40:51.092Z,244
2018-04-11T04:41:17.253Z,252
2018-04-11T04:41:43.392Z,264
2018-04-11T04:42:09.543Z,276
2018-04-11T04:42:35.700Z,288
2018-04-11T04:43:01.856Z,300
2018-04-11T04:43:27.993Z,312
2018-04-11T04:43:54.129Z,324
2018-04-11T04:44:20.267Z,336
2018-04-11T04:44:46.411Z,348
2018-04-11T04:45:12.552Z,360
2018-04-11T04:45:38.686Z,372
2018-04-11T04:46:04.822Z,388
2018-04-11T04:46:30.991Z,400
2018-04-11T04:46:57.163Z,416
2018-04-11T04:47:23.323Z,432
2018-04-11T04:47:49.464Z,448
2018-04-11T04:48:15.625Z,464
2018-04-11T04:48:41.770Z,480
2018-04-11T04:49:07.905Z,496
2018-04-11T04:49:34.044Z,512
2018-04-11T04:50:00.184Z,532
2018-04-11T04:50:26.328Z,548
2018-04-11T04:50:52.460Z,564
2018-04-11T04:51:18.607Z,580
2018-04-11T04:51:44.760Z,600
2018-04-11T04:52:10.900Z,616
2018-04-11T04:52:37.061Z,636
2018-04-11T04:53:03.205Z,652
2018-04-11T04:53:29.340Z,668
2018-04-11T04:53:55.482Z,684
2018-04-11T04:54:21.622Z,704
2018-04-11T04:54:47.753Z,716
2018-04-11T04:55:13.925Z,736
2018-04-11T04:55:40.084Z,748
2018-04-11T04:56:06.225Z,768
2018-04-11T04:56:32.364Z,784
2018-04-11T04:56:58.505Z,804
2018-04-11T04:57:24.645Z,824
2018-04-11T04:57:50.812Z,840
2018-04-11T04:58:16.956Z,864
2018-04-11T04:58:43.094Z,884
2018-04-11T04:59:09.257Z,904
2018-04-11T04:59:35.413Z,924
2018-04-11T05:00:01.554Z,948
2018-04-11T05:00:27.689Z,972
2018-04-11T05:00:53.835Z,996
2018-04-11T05:01:19.994Z,1020
2018-04-11T05:01:46.134Z,1048
2018-04-11T05:02:12.277Z,1068
2018-04-11T05:02:38.412Z,1096
2018-04-11T05:03:04.548Z,1120
2018-04-11T05:03:30.684Z,1144
2018-04-11T05:03:56.860Z,1172
2018-04-11T05:04:23.002Z,1196
2018-04-11T05:04:49.142Z,1220
2018-04-11T05:05:15.302Z,1244
2018-04-11T05:05:41.441Z,1272
2018-04-11T05:06:07.584Z,1300
2018-04-11T05:06:33.721Z,1324
2018-04-11T05:06:59.863Z,1356
2018-04-11T05:07:26.005Z,1384
2018-04-11T05:07:52.148Z,1412
2018-04-11T05:08:18.308Z,1440
2018-04-11T05:08:44.469Z,1464
2018-04-11T05:09:10.635Z,1488
2018-04-11T05:09:36.803Z,1508
2018-04-11T05:10:02.974Z,1528
2018-04-11T05:10:29.142Z,1544
2018-04-11T05:10:55.276Z,1564
2018-04-11T05:11:21.430Z,1580
2018-04-11T05:11:47.556Z,1600
2018-04-11T05:12:13.703Z,1616
2018-04-11T05:12:39.863Z,1632
2018-04-11T05:13:06.004Z,1640
2018-04-11T05:13:32.158Z,1652
2018-04-11T05:13:58.302Z,1656
2018-04-11T05:14:24.437Z,1660
2018-04-11T05:14:50.594Z,1668
2018-04-11T05:15:16.739Z,1672
2018-04-11T05:15:42.871Z,1680
2018-04-11T05:16:09.013Z,1696
2018-04-11T05:16:35.159Z,1708
2018-04-11T05:17:01.319Z,1724
2018-04-11T05:17:27.506Z,1744
2018-04-11T05:17:53.640Z,1772
2018-04-11T05:18:19.787Z,1800
2018-04-11T05:18:45.952Z,1832
2018-04-11T05:19:12.086Z,1868
2018-04-11T05:19:38.226Z,1908
2018-04-11T05:20:04.366Z,1956
2018-04-11T05:20:30.531Z,2000
2018-04-11T05:20:56.668Z,2048
2018-04-11T05:21:22.853Z,2096
2018-04-11T05:21:49.057Z,2152
2018-04-11T05:22:15.199Z,2208
2018-04-11T05:22:41.374Z,2268
2018-04-11T05:23:07.500Z,2328
2018-04-11T05:23:33.661Z,2396
2018-04-11T05:23:59.802Z,2468
2018-04-11T05:24:25.938Z,2536
2018-04-11T05:24:52.078Z,2608
2018-04-11T05:25:18.243Z,2672
2018-04-11T05:25:44.381Z,2744
2018-04-11T05:26:10.519Z,2812
2018-04-11T05:26:36.705Z,2888
2018-04-11T05:27:02.852Z,2960
2018-04-11T05:27:28.986Z,3032
2018-04-11T05:27:55.153Z,3116
2018-04-11T05:28:21.327Z,3196
2018-04-11T05:28:47.461Z,3280
2018-04-11T05:29:13.601Z,3372
2018-04-11T05:29:39.763Z,3464
2018-04-11T05:30:05.900Z,3548
2018-04-11T05:30:32.036Z,3632
2018-04-11T05:30:58.205Z,3712
2018-04-11T05:31:24.363Z,3796
2018-04-11T05:31:50.547Z,3880
2018-04-11T05:32:16.705Z,3972
2018-04-11T05:32:42.879Z,4060
2018-04-11T05:33:09.027Z,4144
2018-04-11T05:33:35.179Z,4224
2018-04-11T05:34:01.330Z,4292
2018-04-11T05:34:27.475Z,4356
2018-04-11T05:34:53.616Z,4424
2018-04-11T05:35:19.755Z,4484
2018-04-11T05:35:45.896Z,4532
2018-04-11T05:36:12.039Z,4572
2018-04-11T05:36:38.172Z,4600
2018-04-11T05:37:04.314Z,4628
2018-04-11T05:37:30.447Z,4640
2018-04-11T05:37:56.618Z,4640
2018-04-11T05:38:22.757Z,4632
2018-04-11T05:38:48.922Z,4624
2018-04-11T05:39:15.062Z,4604
2018-04-11T05:39:41.222Z,4584
2018-04-11T05:40:07.361Z,4568
2018-04-11T05:40:33.528Z,4568
2018-04-11T05:40:59.685Z,4572
2018-04-11T05:41:25.826Z,4596
2018-04-11T05:41:51.986Z,4620
2018-04-11T05:42:18.173Z,4652
2018-04-11T05:42:44.314Z,4692
2018-04-11T05:43:10.472Z,4736
2018-04-11T05:43:36.609Z,4780
2018-04-11T05:44:02.751Z,4824
2018-04-11T05:44:28.892Z,4864
2018-04-11T05:44:55.036Z,4904
2018-04-11T05:45:21.226Z,4944
2018-04-11T05:45:47.362Z,4984
2018-04-11T05:46:13.508Z,5020
2018-04-11T05:46:39.671Z,5060
2018-04-11T05:47:05.812Z,5104
2018-04-11T05:47:31.948Z,5148
2018-04-11T05:47:58.117Z,5192
2018-04-11T05:48:24.226Z,5232
2018-04-11T05:48:50.390Z,5272
2018-04-11T05:49:16.549Z,5312
2018-04-11T05:49:42.679Z,5352
2018-04-11T05:50:08.848Z,5384
2018-04-11T05:50:35.020Z,5408
2018-04-11T05:51:01.156Z,5436
2018-04-11T05:51:27.341Z,5460
2018-04-11T05:51:53.457Z,5480
2018-04-11T05:52:19.599Z,5504
2018-04-11T05:52:45.737Z,5532
2018-04-11T05:53:11.956Z,5568
2018-04-11T05:53:38.118Z,5612
2018-04-11T05:54:04.259Z,5648
2018-04-11T05:54:30.395Z,5680
2018-04-11T05:54:56.585Z,5720
2018-04-11T05:55:22.721Z,5760
2018-04-11T05:55:48.863Z,5796
2018-04-11T05:56:15.010Z,5844
2018-04-11T05:56:41.170Z,5900
2018-04-11T05:57:07.335Z,5960
2018-04-11T05:57:33.471Z,6016
2018-04-11T05:57:59.644Z,6076
2018-04-11T05:58:25.762Z,6140
2018-04-11T05:58:51.916Z,6220
2018-04-11T05:59:18.059Z,6296
2018-04-11T05:59:44.220Z,6372
2018-04-11T06:00:10.353Z,6436
2018-04-11T06:00:36.499Z,6500
2018-04-11T06:01:02.662Z,6564
2018-04-11T06:01:28.802Z,6640
2018-04-11T06:01:54.947Z,6720
2018-04-11T06:02:21.106Z,6808
2018-04-11T06:02:47.249Z,6908
2018-04-11T06:03:13.384Z,7024
2018-04-11T06:03:39.524Z,7120
2018-04-11T06:04:05.667Z,7208
2018-04-11T06:04:31.823Z,7264
2018-04-11T06:04:57.964Z,7268
2018-04-11T06:05:24.103Z,7240
2018-04-11T06:05:50.268Z,7220
2018-04-11T06:06:16.431Z,7220
2018-04-11T06:06:42.574Z,7260
2018-04-11T06:07:08.743Z,7316
2018-04-11T06:07:34.882Z,7376
2018-04-11T06:08:01.022Z,7448
2018-04-11T06:08:27.180Z,7564
2018-04-11T06:08:53.339Z,7720
2018-04-11T06:09:19.484Z,7924
2018-04-11T06:09:45.619Z,8124
2018-04-11T06:10:11.766Z,8268
2018-04-11T06:10:37.928Z,8324
2018-04-11T06:11:04.088Z,8332
2018-04-11T06:11:30.233Z,8332
2018-04-11T06:11:56.420Z,8372
2018-04-11T06:12:22.562Z,8464
2018-04-11T06:12:48.698Z,8564
2018-04-11T06:13:14.847Z,8692
2018-04-11T06:13:40.990Z,8884
2018-04-11T06:14:07.127Z,9076
2018-04-11T06:14:33.264Z,9232
2018-04-11T06:14:59.404Z,9360
2018-04-11T06:15:25.543Z,9492
2018-04-11T06:15:51.674Z,9660